createdAt,value
2023-04-16T00:00:00.551Z,5.60
2023-04-16T00:05:00.508Z,4.70
2023-04-16T00:10:00.408Z,5.40
2023-04-16T00:15:00.369Z,4.50
2023-04-16T00:20:00.448Z,7.30
2023-04-16T00:25:00.367Z,8.20
2023-04-16T00:30:00.378Z,6.70
2023-04-16T00:35:00.364Z,5.30
2023-04-16T00:40:00.614Z,6.50
2023-04-16T00:45:00.351Z,6.90
2023-04-16T00:50:02.709Z,5.80
2023-04-16T00:55:00.470Z,2.60
2023-04-16T01:00:02.261Z,4.80
2023-04-16T01:05:01.390Z,3.60
2023-04-16T01:10:00.399Z,6.00
2023-04-16T01:15:00.463Z,2.70
2023-04-16T01:20:00.441Z,3.30
2023-04-16T01:25:00.327Z,3.70
2023-04-16T01:30:00.404Z,4.00
2023-04-16T01:35:00.515Z,6.50
2023-04-16T01:40:00.337Z,6.70
2023-04-16T01:45:00.527Z,4.60
2023-04-16T01:50:00.511Z,5.10
2023-04-16T01:55:00.345Z,5.30
2023-04-16T02:00:01.149Z,7.70
2023-04-16T02:05:01.153Z,4.70
2023-04-16T02:10:00.443Z,5.60
2023-04-16T02:15:00.405Z,8.20
2023-04-16T02:20:00.464Z,7.70
2023-04-16T02:25:00.405Z,8.50
2023-04-16T02:30:00.349Z,7.50
2023-04-16T02:35:00.442Z,10.50
2023-04-16T02:40:00.344Z,9.80
2023-04-16T02:45:00.357Z,10.40
2023-04-16T02:50:00.329Z,8.10
2023-04-16T02:55:00.338Z,9.70
2023-04-16T03:00:00.385Z,9.70
2023-04-16T03:05:00.365Z,10.20
2023-04-16T03:10:00.353Z,8.80
2023-04-16T03:15:00.363Z,12.60
2023-04-16T03:20:00.514Z,10.70
2023-04-16T03:25:00.337Z,11.50
2023-04-16T03:30:01.221Z,11.00
2023-04-16T03:35:00.378Z,10.70
2023-04-16T03:40:00.569Z,10.70
2023-04-16T03:45:00.371Z,11.90
2023-04-16T03:50:00.531Z,12.70
2023-04-16T03:55:00.368Z,13.10
2023-04-16T04:00:00.403Z,12.60
2023-04-16T04:05:00.414Z,13.50
2023-04-16T04:10:00.328Z,10.40
2023-04-16T04:15:00.358Z,11.80
2023-04-16T04:20:01.791Z,13.00
2023-04-16T04:25:00.371Z,9.20
2023-04-16T04:30:00.366Z,10.60
2023-04-16T04:35:02.062Z,13.00
2023-04-16T04:40:00.324Z,12.90
2023-04-16T04:45:00.404Z,11.00
2023-04-16T04:50:00.330Z,15.10
2023-04-16T04:55:00.339Z,12.10
2023-04-16T05:00:01.491Z,16.10
2023-04-16T05:05:00.441Z,14.30
2023-04-16T05:10:00.351Z,16.70
2023-04-16T05:15:00.348Z,15.30
2023-04-16T05:20:00.392Z,15.90
2023-04-16T05:25:00.472Z,13.40
2023-04-16T05:30:00.338Z,15.80
2023-04-16T05:35:00.418Z,17.70
2023-04-16T05:40:00.366Z,16.70
2023-04-16T05:45:01.738Z,15.30
2023-04-16T05:50:00.365Z,16.70
2023-04-16T05:55:00.349Z,13.90
2023-04-16T06:00:00.437Z,18.20
2023-04-16T06:05:00.332Z,14.90
2023-04-16T06:10:00.344Z,17.90
2023-04-16T06:15:00.493Z,17.00
2023-04-16T06:20:00.389Z,14.50
2023-04-16T06:25:00.350Z,15.20
2023-04-16T06:30:00.354Z,20.70
2023-04-16T06:35:00.384Z,14.40
2023-04-16T06:40:00.543Z,15.60
2023-04-16T06:45:00.456Z,17.20
2023-04-16T06:50:00.338Z,19.40
2023-04-16T06:55:00.838Z,19.60
2023-04-16T07:00:00.693Z,20.40
2023-04-16T07:05:00.368Z,16.90
2023-04-16T07:10:00.385Z,15.80
2023-04-16T07:15:00.365Z,17.80
2023-04-16T07:20:00.391Z,16.70
2023-04-16T07:25:00.367Z,20.00
2023-04-16T07:30:00.415Z,17.80
2023-04-16T07:35:00.399Z,18.50
2023-04-16T07:40:00.422Z,16.30
2023-04-16T07:45:00.329Z,18.50
2023-04-16T07:50:00.382Z,13.70
2023-04-16T07:55:00.375Z,21.50
2023-04-16T08:00:00.374Z,16.80
2023-04-16T08:05:00.478Z,17.60
2023-04-16T08:10:01.753Z,19.60
2023-04-16T08:15:00.322Z,23.90
2023-04-16T08:20:00.378Z,20.20
2023-04-16T08:25:00.361Z,22.30
2023-04-16T08:30:00.354Z,20.90
2023-04-16T08:35:00.512Z,19.80
2023-04-16T08:40:00.444Z,15.60
2023-04-16T08:45:12.862Z,17.60
2023-04-16T08:50:02.136Z,14.30
2023-04-16T08:55:05.819Z,14.20
2023-04-16T09:00:01.519Z,15.30
2023-04-16T09:05:04.067Z,13.00
2023-04-16T09:10:00.896Z,13.80
2023-04-16T09:15:01.443Z,13.60
2023-04-16T09:20:00.353Z,13.90
2023-04-16T09:25:00.596Z,10.80
2023-04-16T09:30:00.458Z,10.50
2023-04-16T09:35:01.129Z,11.70
2023-04-16T09:40:02.572Z,12.10
2023-04-16T09:45:03.316Z,12.10
2023-04-16T09:50:00.355Z,11.90
2023-04-16T09:55:00.364Z,12.20
2023-04-16T10:00:03.901Z,9.50
2023-04-16T10:05:01.509Z,12.00
2023-04-16T10:10:01.672Z,9.60
2023-04-16T10:15:00.749Z,10.30
2023-04-16T10:20:00.478Z,8.20
2023-04-16T10:25:00.944Z,11.90
2023-04-16T10:30:00.653Z,8.60
2023-04-16T10:35:00.501Z,8.50
2023-04-16T10:40:00.406Z,9.40
2023-04-16T10:45:00.378Z,7.50
2023-04-16T10:50:00.450Z,8.30
2023-04-16T10:55:01.552Z,8.90
2023-04-16T11:00:00.372Z,6.60
2023-04-16T11:05:00.722Z,7.60
2023-04-16T11:10:04.132Z,7.50
2023-04-16T11:15:04.206Z,7.10
2023-04-16T11:20:00.724Z,10.20
2023-04-16T11:25:00.339Z,10.80
2023-04-16T11:30:02.773Z,6.90
2023-04-16T11:35:02.065Z,9.80
2023-04-16T11:40:01.598Z,8.40
2023-04-16T11:45:00.370Z,7.50
2023-04-16T11:50:20.261Z,9.40
2023-04-16T11:55:01.533Z,7.90
2023-04-16T12:00:01.600Z,9.00
2023-04-16T12:05:00.518Z,8.50
2023-04-16T12:10:08.587Z,12.40
2023-04-16T12:15:02.250Z,9.20
2023-04-16T12:20:02.881Z,7.60
2023-04-16T12:25:03.546Z,13.50
2023-04-16T12:30:02.279Z,11.80
2023-04-16T12:35:00.372Z,15.30
2023-04-16T12:40:00.601Z,11.60
2023-04-16T12:45:01.205Z,11.90
2023-04-16T12:50:00.388Z,14.20
2023-04-16T12:55:01.027Z,13.30
2023-04-16T13:00:00.442Z,15.60
2023-04-16T13:05:00.363Z,14.00
2023-04-16T13:10:00.888Z,16.10
2023-04-16T13:15:00.376Z,16.90
2023-04-16T13:20:00.392Z,15.40
2023-04-16T13:25:00.423Z,16.00
2023-04-16T13:30:00.396Z,14.60
2023-04-16T13:35:00.404Z,17.40
2023-04-16T13:40:00.484Z,13.80
2023-04-16T13:45:00.347Z,14.60
2023-04-16T13:50:00.566Z,10.70
2023-04-16T13:55:00.393Z,11.00
2023-04-16T14:00:00.836Z,14.90
2023-04-16T14:05:00.383Z,10.80
2023-04-16T14:10:00.327Z,13.20
2023-04-16T14:15:00.509Z,13.70
2023-04-16T14:20:00.349Z,14.00
2023-04-16T14:25:00.535Z,14.50
2023-04-16T14:30:00.628Z,14.20
2023-04-16T14:35:00.509Z,13.20
2023-04-16T14:40:00.433Z,15.80
2023-04-16T14:45:00.346Z,34.20
2023-04-16T14:50:00.824Z,17.30
2023-04-16T14:55:00.412Z,17.90
2023-04-16T15:00:00.422Z,18.60
2023-04-16T15:05:00.486Z,19.50
2023-04-16T15:10:00.434Z,17.40
2023-04-16T15:15:00.349Z,19.40
2023-04-16T15:20:00.436Z,18.00
2023-04-16T15:25:00.395Z,18.80
2023-04-16T15:30:00.341Z,18.70
2023-04-16T15:35:01.440Z,17.70
2023-04-16T15:40:00.368Z,15.30
2023-04-16T15:45:00.377Z,36.50
2023-04-16T15:50:00.423Z,33.80
2023-04-16T15:55:02.263Z,19.20
2023-04-16T16:00:06.396Z,17.20
2023-04-16T16:05:00.453Z,14.70
2023-04-16T16:10:00.521Z,13.80
2023-04-16T16:15:00.408Z,14.70
2023-04-16T16:20:01.472Z,17.30
2023-04-16T16:25:00.342Z,16.90
2023-04-16T16:30:00.452Z,21.30
2023-04-16T16:35:00.355Z,17.80
2023-04-16T16:40:00.497Z,19.30
2023-04-16T16:45:00.418Z,16.00
2023-04-16T16:50:02.751Z,15.30
2023-04-16T16:55:00.337Z,14.50
2023-04-16T17:00:00.354Z,18.40
2023-04-16T17:05:00.378Z,14.10
2023-04-16T17:10:02.986Z,13.10
2023-04-16T17:15:00.336Z,19.30
2023-04-16T17:20:00.356Z,25.60
2023-04-16T17:25:00.841Z,17.90
2023-04-16T17:30:00.941Z,15.80
2023-04-16T17:35:00.723Z,16.20
2023-04-16T17:40:00.349Z,15.70
2023-04-16T17:45:00.488Z,15.40
2023-04-16T17:50:00.554Z,14.50
2023-04-16T17:55:00.358Z,24.30
2023-04-16T18:00:00.413Z,17.30
2023-04-16T18:05:00.423Z,17.20
2023-04-16T18:10:00.336Z,15.10
2023-04-16T18:15:00.339Z,17.00
2023-04-16T18:20:00.475Z,16.30
2023-04-16T18:25:00.330Z,19.20
2023-04-16T18:30:00.414Z,17.90
2023-04-16T18:35:00.438Z,21.60
2023-04-16T18:40:00.371Z,19.50
2023-04-16T18:45:00.345Z,17.20
2023-04-16T18:50:00.347Z,20.60
2023-04-16T18:55:00.356Z,18.30
2023-04-16T19:00:00.341Z,20.50
2023-04-16T19:05:00.339Z,21.50
2023-04-16T19:10:00.339Z,21.10
2023-04-16T19:15:00.473Z,21.60
2023-04-16T19:20:00.320Z,18.50
2023-04-16T19:25:00.357Z,19.30
2023-04-16T19:30:00.551Z,25.70
2023-04-16T19:35:00.353Z,26.00
2023-04-16T19:40:00.334Z,23.10
2023-04-16T19:45:00.349Z,21.80
2023-04-16T19:50:00.386Z,22.20
2023-04-16T19:55:00.421Z,21.10
2023-04-16T20:00:00.695Z,22.40
2023-04-16T20:05:00.470Z,22.20
2023-04-16T20:10:00.413Z,27.20
2023-04-16T20:15:00.376Z,24.70
2023-04-16T20:20:00.321Z,21.40
2023-04-16T20:25:00.376Z,26.40
2023-04-16T20:30:01.032Z,21.60
2023-04-16T20:35:00.459Z,25.60
2023-04-16T20:40:00.385Z,24.30
2023-04-16T20:45:00.478Z,23.10
2023-04-16T20:50:00.614Z,26.40
2023-04-16T20:55:00.333Z,25.30
2023-04-16T21:00:00.357Z,27.50
2023-04-16T21:05:00.401Z,26.60
2023-04-16T21:10:00.789Z,25.00
2023-04-16T21:15:00.422Z,21.50
2023-04-16T21:20:00.404Z,25.00
2023-04-16T21:25:00.378Z,22.90
2023-04-16T21:30:00.416Z,23.70
2023-04-16T21:35:00.377Z,26.00
2023-04-16T21:40:01.046Z,24.90
2023-04-16T21:45:00.413Z,22.50
2023-04-16T21:50:00.371Z,25.30
2023-04-16T21:55:00.550Z,25.30
2023-04-16T22:00:00.342Z,25.30
2023-04-16T22:05:00.435Z,27.60
2023-04-16T22:10:00.325Z,29.40
2023-04-16T22:15:03.190Z,26.40
2023-04-16T22:20:00.583Z,27.10
2023-04-16T22:25:00.791Z,26.20
2023-04-16T22:30:01.082Z,27.40
2023-04-16T22:35:00.352Z,27.30
2023-04-16T22:40:00.361Z,28.80
2023-04-16T22:45:00.347Z,24.40
2023-04-16T22:50:00.499Z,23.30
2023-04-16T22:55:00.363Z,22.90
2023-04-16T23:00:00.388Z,23.40
2023-04-16T23:05:00.347Z,23.40
2023-04-16T23:10:00.334Z,21.70
2023-04-16T23:20:00.308Z,24.90
2023-04-16T23:25:00.585Z,23.10
2023-04-16T23:30:00.412Z,24.10
2023-04-16T23:35:00.390Z,27.00
2023-04-16T23:40:00.370Z,26.60
2023-04-16T23:45:00.355Z,26.80
2023-04-16T23:50:00.376Z,27.90
2023-04-16T23:55:00.449Z,24.90
